Dades meteomassalio
Diari Summary for Setembre 12, 2017 Units:  Metric    English   Both
« Previous Day
Next Day »
Diari Semanal Mensual Anual Personalitzat
  Maxima: Minima: Mijana:
Temperatura: 24.4 °C 12.2 °C 18.8 °C
Rosada: 11.9 °C 2.9 °C 9.8 °C
Humitat: 72 % 38 % 57 %
Velocitat del vent: 43.4 km/h 0.0 km/h 21 km/h
Racha vent: 43.4 km/h - -
Vent:- - SW
Pressio: 1023.2 hPa 1015.1 hPa -
Pluja: 0.0 mm    
Historical Graphs
 
 
Tabular Data for Setembre 12, 2017
Time Temperature Dew Point Pressure Wind Wind Speed Wind Gust Humidity Rainfall Rate (Hourly) solar Conditions
00:01 18.9 °C 11.2 °C 1015.5 hPa SSW 16.7 km/h 16.7 km/h 61 % 0.0 mm 0.0 W/m2 CLR
00:02 18.9 °C 11.2 °C 1015.1 hPa SSW 14.8 km/h 14.8 km/h 61 % 0.0 mm 0.0 W/m2 CLR
00:07 18.9 °C 11.4 °C 1015.1 hPa SSW 18.5 km/h 18.5 km/h 62 % 0.0 mm 0.0 W/m2 CLR
00:12 18.3 °C 10.9 °C 1015.1 hPa SSW 17.7 km/h 17.7 km/h 62 % 0.0 mm 0.0 W/m2 CLR
00:22 18.9 °C 11.4 °C 1015.1 hPa SSW 25.9 km/h 25.9 km/h 62 % 0.0 mm 0.0 W/m2 CLR
00:27 18.9 °C 11.7 °C 1015.1 hPa SW 16.7 km/h 16.7 km/h 63 % 0.0 mm 0.0 W/m2 CLR
00:32 18.3 °C 11.2 °C 1015.5 hPa SW 18.5 km/h 18.5 km/h 63 % 0.0 mm 0.0 W/m2 CLR
00:37 18.3 °C 11.2 °C 1015.5 hPa SW 16.7 km/h 16.7 km/h 63 % 0.0 mm 0.0 W/m2 CLR
00:42 18.3 °C 11.2 °C 1015.5 hPa SSW 14.8 km/h 14.8 km/h 63 % 0.0 mm 0.0 W/m2 CLR
00:47 18.3 °C 11.4 °C 1015.5 hPa SSW 18.5 km/h 18.5 km/h 64 % 0.0 mm 0.0 W/m2 CLR
00:52 18.3 °C 11.4 °C 1015.5 hPa SSW 14.8 km/h 14.8 km/h 64 % 0.0 mm 0.0 W/m2 CLR
00:57 18.3 °C 11.4 °C 1015.5 hPa SSW 18.5 km/h 18.5 km/h 64 % 0.0 mm 0.0 W/m2 CLR
01:02 17.8 °C 10.9 °C 1015.5 hPa SSW 14.8 km/h 14.8 km/h 64 % 0.0 mm 0.0 W/m2 CLR
01:07 17.8 °C 10.9 °C 1015.5 hPa SSW 16.7 km/h 16.7 km/h 64 % 0.0 mm 0.0 W/m2 CLR
01:12 17.8 °C 11.1 °C 1015.5 hPa SSW 18.5 km/h 18.5 km/h 65 % 0.0 mm 0.0 W/m2 CLR
01:17 17.8 °C 11.1 °C 1015.5 hPa SSW 18.5 km/h 18.5 km/h 65 % 0.0 mm 0.0 W/m2 CLR
01:22 17.8 °C 11.1 °C 1015.8 hPa SSW 16.7 km/h 16.7 km/h 65 % 0.0 mm 0.0 W/m2 CLR
01:27 17.8 °C 11.1 °C 1015.8 hPa SW 14.5 km/h 14.5 km/h 65 % 0.0 mm 0.0 W/m2 CLR
01:32 17.8 °C 11.3 °C 1015.8 hPa SSW 9.3 km/h 9.3 km/h 66 % 0.0 mm 0.0 W/m2 CLR
01:37 17.2 °C 10.8 °C 1015.8 hPa SSW 18.5 km/h 18.5 km/h 66 % 0.0 mm 0.0 W/m2 CLR
01:42 17.2 °C 10.8 °C 1015.8 hPa South 16.7 km/h 16.7 km/h 66 % 0.0 mm 0.0 W/m2 CLR
01:47 17.2 °C 10.8 °C 1015.8 hPa South 13.0 km/h 13.0 km/h 66 % 0.0 mm 0.0 W/m2 CLR
01:52 16.7 °C 10.5 °C 1016.1 hPa SW 13.0 km/h 13.0 km/h 67 % 0.0 mm 0.0 W/m2 CLR
01:57 16.7 °C 10.5 °C 1016.1 hPa SSW 16.7 km/h 16.7 km/h 67 % 0.0 mm 0.0 W/m2 CLR
02:02 16.7 °C 10.5 °C 1016.1 hPa SSW 14.5 km/h 14.5 km/h 67 % 0.0 mm 0.0 W/m2 CLR
02:07 16.7 °C 10.5 °C 1016.1 hPa SSW 25.9 km/h 25.9 km/h 67 % 0.0 mm 0.0 W/m2 CLR
02:13 16.7 °C 10.5 °C 1016.1 hPa SW 22.2 km/h 22.2 km/h 67 % 0.0 mm 0.0 W/m2 CLR
02:18 16.7 °C 10.5 °C 1016.1 hPa SW 7.4 km/h 7.4 km/h 67 % 0.0 mm 0.0 W/m2 CLR
02:23 17.2 °C 11.3 °C 1016.1 hPa SSW 14.8 km/h 14.8 km/h 68 % 0.0 mm 0.0 W/m2 CLR
02:28 16.7 °C 10.7 °C 1016.1 hPa SSW 17.7 km/h 17.7 km/h 68 % 0.0 mm 0.0 W/m2 CLR
02:33 16.7 °C 10.7 °C 1016.5 hPa SW 14.8 km/h 14.8 km/h 68 % 0.0 mm 0.0 W/m2 CLR
02:38 17.2 °C 11.3 °C 1016.5 hPa SSW 9.7 km/h 9.7 km/h 68 % 0.0 mm 0.0 W/m2 CLR
02:43 16.7 °C 10.7 °C 1016.5 hPa SSW 7.4 km/h 7.4 km/h 68 % 0.0 mm 0.0 W/m2 CLR
02:48 16.7 °C 10.7 °C 1016.5 hPa SSW 14.8 km/h 14.8 km/h 68 % 0.0 mm 0.0 W/m2 CLR
02:53 16.7 °C 10.7 °C 1016.5 hPa SSW 14.8 km/h 14.8 km/h 68 % 0.0 mm 0.0 W/m2 CLR
02:58 16.7 °C 10.7 °C 1016.5 hPa SSW 16.7 km/h 16.7 km/h 68 % 0.0 mm 0.0 W/m2 CLR
03:03 16.7 °C 10.9 °C 1016.5 hPa SSW 13.0 km/h 13.0 km/h 69 % 0.0 mm 0.0 W/m2 CLR
03:08 16.7 °C 10.9 °C 1016.5 hPa SSW 18.5 km/h 18.5 km/h 69 % 0.0 mm 0.0 W/m2 CLR
03:13 17.2 °C 11.5 °C 1016.5 hPa SSW 20.4 km/h 20.4 km/h 69 % 0.0 mm 0.0 W/m2 CLR
03:18 17.2 °C 11.5 °C 1016.5 hPa SW 14.5 km/h 14.5 km/h 69 % 0.0 mm 0.0 W/m2 CLR
03:23 17.2 °C 11.5 °C 1016.5 hPa SSW 16.7 km/h 16.7 km/h 69 % 0.0 mm 0.0 W/m2 CLR
03:28 17.2 °C 11.5 °C 1016.5 hPa SW 11.1 km/h 11.1 km/h 69 % 0.0 mm 0.0 W/m2 CLR
03:33 17.2 °C 11.5 °C 1016.5 hPa South 14.8 km/h 14.8 km/h 69 % 0.0 mm 0.0 W/m2 CLR
03:38 17.2 °C 11.5 °C 1016.5 hPa SSW 13.0 km/h 13.0 km/h 69 % 0.0 mm 0.0 W/m2 CLR
03:43 17.2 °C 11.5 °C 1016.5 hPa SSW 18.5 km/h 18.5 km/h 69 % 0.0 mm 0.0 W/m2 CLR
03:48 17.2 °C 11.5 °C 1016.5 hPa South 16.7 km/h 16.7 km/h 69 % 0.0 mm 0.0 W/m2 CLR
03:53 17.2 °C 11.5 °C 1016.8 hPa SW 14.8 km/h 14.8 km/h 69 % 0.0 mm 0.0 W/m2 CLR
03:58 17.2 °C 11.5 °C 1016.8 hPa South 18.5 km/h 18.5 km/h 69 % 0.0 mm 0.0 W/m2 CLR
04:03 17.2 °C 11.5 °C 1016.8 hPa SW 22.5 km/h 22.5 km/h 69 % 0.0 mm 0.0 W/m2 CLR
04:08 17.2 °C 11.5 °C 1016.5 hPa SSW 22.5 km/h 22.5 km/h 69 % 0.0 mm 0.0 W/m2 CLR
04:13 17.2 °C 11.5 °C 1016.8 hPa South 17.7 km/h 17.7 km/h 69 % 0.0 mm 0.0 W/m2 CLR
04:18 17.2 °C 11.5 °C 1016.5 hPa South 22.2 km/h 22.2 km/h 69 % 0.0 mm 0.0 W/m2 CLR
04:23 17.2 °C 11.5 °C 1016.5 hPa SSW 27.8 km/h 27.8 km/h 69 % 0.0 mm 0.0 W/m2 CLR
04:28 17.2 °C 11.5 °C 1016.5 hPa SSW 14.8 km/h 14.8 km/h 69 % 0.0 mm 0.0 W/m2 CLR
04:33 17.2 °C 11.5 °C 1016.5 hPa SW 18.5 km/h 18.5 km/h 69 % 0.0 mm 0.0 W/m2 CLR
04:38 17.2 °C 11.5 °C 1016.8 hPa SSW 16.7 km/h 16.7 km/h 69 % 0.0 mm 0.0 W/m2 CLR
04:43 17.2 °C 11.5 °C 1016.8 hPa South 18.5 km/h 18.5 km/h 69 % 0.0 mm 0.0 W/m2 CLR
04:48 17.2 °C 11.5 °C 1016.8 hPa SSW 16.7 km/h 16.7 km/h 69 % 0.0 mm 0.0 W/m2 CLR
04:53 17.2 °C 11.5 °C 1016.8 hPa SSW 22.2 km/h 22.2 km/h 69 % 0.0 mm 0.0 W/m2 CLR
04:58 17.2 °C 11.5 °C 1016.8 hPa SW 20.9 km/h 20.9 km/h 69 % 0.0 mm 0.0 W/m2 CLR
05:03 17.2 °C 11.5 °C 1016.8 hPa SSW 22.5 km/h 22.5 km/h 69 % 0.0 mm 0.0 W/m2 CLR
05:08 17.2 °C 11.5 °C 1016.8 hPa SW 22.2 km/h 22.2 km/h 69 % 0.0 mm 0.0 W/m2 CLR
05:14 17.2 °C 11.5 °C 1017.2 hPa SW 22.2 km/h 22.2 km/h 69 % 0.0 mm 0.0 W/m2 CLR
05:19 17.2 °C 11.5 °C 1016.8 hPa SW 18.5 km/h 18.5 km/h 69 % 0.0 mm 0.0 W/m2 CLR
05:22 17.2 °C 11.5 °C 1016.8 hPa SSW 22.5 km/h 22.5 km/h 69 % 0.0 mm 0.0 W/m2 CLR
05:27 17.2 °C 11.5 °C 1016.8 hPa SW 24.1 km/h 24.1 km/h 69 % 0.0 mm 0.0 W/m2 CLR
05:32 16.7 °C 10.9 °C 1016.8 hPa SW 22.2 km/h 22.2 km/h 69 % 0.0 mm 0.0 W/m2 CLR
05:37 16.7 °C 10.9 °C 1016.8 hPa SW 16.1 km/h 16.1 km/h 69 % 0.0 mm 0.0 W/m2 CLR
05:42 16.7 °C 10.9 °C 1017.2 hPa SW 18.5 km/h 18.5 km/h 69 % 0.0 mm 0.0 W/m2 CLR
05:47 16.7 °C 10.9 °C 1016.8 hPa SW 18.5 km/h 18.5 km/h 69 % 0.0 mm 0.0 W/m2 CLR
05:52 16.7 °C 10.9 °C 1016.8 hPa SSW 16.7 km/h 16.7 km/h 69 % 0.0 mm 0.0 W/m2 CLR
05:57 16.7 °C 10.9 °C 1016.8 hPa SW 16.7 km/h 16.7 km/h 69 % 0.0 mm 0.0 W/m2 CLR
06:02 16.7 °C 10.9 °C 1016.8 hPa SW 16.7 km/h 16.7 km/h 69 % 0.0 mm 0.0 W/m2 CLR
06:07 16.7 °C 10.9 °C 1016.8 hPa SSW 18.5 km/h 18.5 km/h 69 % 0.0 mm 0.0 W/m2 CLR
06:12 16.1 °C 10.4 °C 1016.8 hPa SW 16.7 km/h 16.7 km/h 69 % 0.0 mm 0.0 W/m2 CLR
06:14 16.1 °C 10.4 °C 1017.2 hPa SSW 16.7 km/h 16.7 km/h 69 % 0.0 mm 0.0 W/m2 CLR
06:19 16.1 °C 10.4 °C 1016.8 hPa SSW 5.6 km/h   69 % 0.0 mm 0.0 W/m2 CLR
06:24 16.1 °C 10.6 °C 1016.8 hPa SSW 9.3 km/h 9.3 km/h 70 % 0.0 mm 0.0 W/m2 CLR
06:29 16.1 °C 10.6 °C 1017.2 hPa SSW 13.0 km/h 13.0 km/h 70 % 0.0 mm 0.0 W/m2 CLR
06:34 15.6 °C 10.1 °C 1017.2 hPa SSW 18.5 km/h 18.5 km/h 70 % 0.0 mm 0.0 W/m2 CLR
06:39 15.6 °C 10.3 °C 1017.2 hPa SSW 20.4 km/h 20.4 km/h 71 % 0.0 mm 0.0 W/m2 CLR
06:44 15.6 °C 10.3 °C 1017.2 hPa SW 16.7 km/h 16.7 km/h 71 % 0.0 mm 0.0 W/m2 CLR
06:49 15.6 °C 10.5 °C 1017.2 hPa South 24.1 km/h 24.1 km/h 72 % 0.0 mm 0.0 W/m2 CLR
06:54 15.6 °C 10.5 °C 1017.2 hPa SSW 18.5 km/h 18.5 km/h 72 % 0.0 mm 0.0 W/m2 CLR
06:59 15.6 °C 10.5 °C 1017.2 hPa SSW 18.5 km/h 18.5 km/h 72 % 0.0 mm 0.0 W/m2 CLR
07:04 15.6 °C 10.5 °C 1017.2 hPa SSW 13.0 km/h 13.0 km/h 72 % 0.0 mm 0.0 W/m2 CLR
07:09 15.6 °C 10.5 °C 1017.2 hPa SSW 16.7 km/h 16.7 km/h 72 % 0.0 mm 0.0 W/m2 CLR
07:14 15.6 °C 10.5 °C 1017.5 hPa SSW 13.0 km/h 13.0 km/h 72 % 0.0 mm 0.0 W/m2 CLR
07:19 15.6 °C 10.5 °C 1017.5 hPa South 14.5 km/h 14.5 km/h 72 % 0.0 mm 0.0 W/m2 CLR
07:21 15.6 °C 10.5 °C 1017.5 hPa SSW 16.7 km/h 16.7 km/h 72 % 0.0 mm 0.0 W/m2 CLR
07:26 15.6 °C 10.5 °C 1017.5 hPa South 14.8 km/h 14.8 km/h 72 % 0.0 mm 0.0 W/m2 CLR
07:31 15.6 °C 10.5 °C 1017.5 hPa SSW 18.5 km/h 18.5 km/h 72 % 0.0 mm 0.0 W/m2 OVC
07:36 15.6 °C 10.5 °C 1017.5 hPa SSW 24.1 km/h 24.1 km/h 72 % 0.0 mm 5.0 W/m2 OVC
07:41 15.6 °C 10.5 °C 1017.5 hPa SW 14.8 km/h 14.8 km/h 72 % 0.0 mm 5.0 W/m2 OVC
07:46 15.6 °C 10.5 °C 1017.5 hPa SSW 24.1 km/h 24.1 km/h 72 % 0.0 mm 7.0 W/m2 BKN
07:51 15.6 °C 10.5 °C 1017.5 hPa SSW 16.7 km/h 16.7 km/h 72 % 0.0 mm 12.0 W/m2 BKN
07:56 15.6 °C 10.5 °C 1017.5 hPa SSW 20.4 km/h 20.4 km/h 72 % 0.0 mm 16.0 W/m2 BKN
08:01 15.6 °C 10.5 °C 1017.5 hPa SSW 19.3 km/h 19.3 km/h 72 % 0.0 mm 18.0 W/m2 BKN
08:06 15.6 °C 10.3 °C 1017.8 hPa South 18.5 km/h 18.5 km/h 71 % 0.0 mm 18.0 W/m2 BKN
08:11 16.1 °C 10.8 °C 1017.8 hPa SSW 22.2 km/h 22.2 km/h 71 % 0.0 mm 21.0 W/m2 BKN
08:16 16.1 °C 10.8 °C 1017.8 hPa South 18.5 km/h 18.5 km/h 71 % 0.0 mm 28.0 W/m2 BKN
08:21 16.1 °C 10.8 °C 1017.8 hPa SSW 18.5 km/h 18.5 km/h 71 % 0.0 mm 32.0 W/m2 BKN
08:26 16.1 °C 10.6 °C 1017.8 hPa South 16.7 km/h 16.7 km/h 70 % 0.0 mm 37.0 W/m2 BKN
08:31 16.1 °C 10.6 °C 1017.8 hPa SSW 20.4 km/h 20.4 km/h 70 % 0.0 mm 33.0 W/m2 BKN
08:36 16.1 °C 10.6 °C 1018.2 hPa South 18.5 km/h 18.5 km/h 70 % 0.0 mm 28.0 W/m2 BKN
08:41 16.1 °C 10.6 °C 1018.2 hPa South 22.2 km/h 22.2 km/h 70 % 0.0 mm 33.0 W/m2 BKN
08:46 16.1 °C 10.6 °C 1017.8 hPa South 14.8 km/h 14.8 km/h 70 % 0.0 mm 58.0 W/m2 BKN
08:51 16.1 °C 10.6 °C 1018.2 hPa SSW 18.5 km/h 18.5 km/h 70 % 0.0 mm 88.0 W/m2 SCT
08:56 16.1 °C 10.6 °C 1018.2 hPa South 18.5 km/h 18.5 km/h 70 % 0.0 mm 102.0 W/m2 CLR
09:01 16.1 °C 10.4 °C 1018.2 hPa South 18.5 km/h 18.5 km/h 69 % 0.0 mm 67.0 W/m2 CLR
09:06 16.1 °C 10.4 °C 1018.5 hPa SSW 20.4 km/h 20.4 km/h 69 % 0.0 mm 40.0 W/m2 FEW
09:11 16.1 °C 10.4 °C 1018.2 hPa SSW 20.4 km/h 20.4 km/h 69 % 0.0 mm 49.0 W/m2 SCT
09:16 16.1 °C 10.4 °C 1018.2 hPa SSW 14.8 km/h 14.8 km/h 69 % 0.0 mm 77.0 W/m2 SCT
09:21 16.7 °C 10.9 °C 1018.5 hPa SSW 18.5 km/h 18.5 km/h 69 % 0.0 mm 105.0 W/m2 FEW
09:26 16.7 °C 10.7 °C 1018.5 hPa SSW 19.3 km/h 19.3 km/h 68 % 0.0 mm 135.0 W/m2 CLR
09:27 16.7 °C 10.7 °C 1018.5 hPa SSW 24.1 km/h 24.1 km/h 68 % 0.0 mm 144.0 W/m2 CLR
09:32 16.7 °C 10.5 °C 1018.8 hPa SSW 22.5 km/h 22.5 km/h 67 % 0.0 mm 125.0 W/m2 CLR
09:37 17.2 °C 11.1 °C 1018.8 hPa SSW 19.3 km/h 19.3 km/h 67 % 0.0 mm 74.0 W/m2 CLR
09:42 16.7 °C 10.5 °C 1018.8 hPa SW 14.5 km/h 14.5 km/h 67 % 0.0 mm 81.0 W/m2 FEW
09:47 16.7 °C 10.5 °C 1018.8 hPa SSW 20.4 km/h 20.4 km/h 67 % 0.0 mm 97.0 W/m2 FEW
09:52 16.7 °C 10.5 °C 1019.2 hPa SSW 18.5 km/h 18.5 km/h 67 % 0.0 mm 114.0 W/m2 CLR
09:57 17.2 °C 11.1 °C 1019.2 hPa SSW 27.8 km/h 27.8 km/h 67 % 0.0 mm 120.0 W/m2 CLR
10:02 17.2 °C 11.1 °C 1019.2 hPa SW 18.5 km/h 18.5 km/h 67 % 0.0 mm 146.0 W/m2 CLR
10:07 17.2 °C 11.1 °C 1019.2 hPa SW 18.5 km/h 18.5 km/h 67 % 0.0 mm 153.0 W/m2 CLR
10:12 17.2 °C 10.8 °C 1019.5 hPa SW 25.9 km/h 25.9 km/h 66 % 0.0 mm 234.0 W/m2 CLR
10:17 17.8 °C 11.3 °C 1019.5 hPa SSW 16.7 km/h 16.7 km/h 66 % 0.0 mm 285.0 W/m2 CLR
10:22 17.8 °C 11.1 °C 1019.5 hPa SW 25.9 km/h 25.9 km/h 65 % 0.0 mm 236.0 W/m2 CLR
10:27 17.8 °C 11.1 °C 1019.5 hPa West 22.5 km/h 22.5 km/h 65 % 0.0 mm 151.0 W/m2 CLR
10:32 17.8 °C 10.9 °C 1019.2 hPa WSW 20.9 km/h 20.9 km/h 64 % 0.0 mm 214.0 W/m2 CLR
10:37 17.8 °C 10.9 °C 1019.5 hPa WSW 18.5 km/h 18.5 km/h 64 % 0.0 mm 197.0 W/m2 CLR
10:42 18.3 °C 10.9 °C 1019.5 hPa WSW 29.6 km/h 29.6 km/h 62 % 0.0 mm 195.0 W/m2 CLR
10:47 18.3 °C 11.2 °C 1019.5 hPa SW 20.4 km/h 20.4 km/h 63 % 0.0 mm 207.0 W/m2 CLR
10:52 18.3 °C 10.9 °C 1019.5 hPa WSW 18.5 km/h 18.5 km/h 62 % 0.0 mm 158.0 W/m2 CLR
10:57 18.3 °C 10.9 °C 1019.9 hPa WSW 24.1 km/h 24.1 km/h 62 % 0.0 mm 135.0 W/m2 CLR
11:02 18.3 °C 10.9 °C 1020.2 hPa WSW 27.8 km/h 27.8 km/h 62 % 0.0 mm 172.0 W/m2 CLR
11:07 18.3 °C 10.9 °C 1019.9 hPa SW 18.5 km/h 18.5 km/h 62 % 0.0 mm 195.0 W/m2 CLR
11:12 18.3 °C 10.7 °C 1019.9 hPa WSW 22.5 km/h 22.5 km/h 61 % 0.0 mm 197.0 W/m2 CLR
11:17 18.3 °C 10.9 °C 1019.9 hPa South 24.1 km/h 24.1 km/h 62 % 0.0 mm 248.0 W/m2 CLR
11:22 18.3 °C 10.7 °C 1020.2 hPa SW 32.2 km/h 32.2 km/h 61 % 0.0 mm 255.0 W/m2 CLR
11:27 18.3 °C 10.7 °C 1020.2 hPa SW 25.9 km/h 25.9 km/h 61 % 0.0 mm 327.0 W/m2 CLR
11:32 18.9 °C 11.2 °C 1020.2 hPa SW 24.1 km/h 24.1 km/h 61 % 0.0 mm 288.0 W/m2 CLR
11:37 18.9 °C 10.9 °C 1020.2 hPa SW 27.8 km/h 27.8 km/h 60 % 0.0 mm 294.0 W/m2 CLR
11:42 18.9 °C 10.9 °C 1020.2 hPa WSW 25.9 km/h 25.9 km/h 60 % 0.0 mm 582.0 W/m2 CLR
11:47 19.4 °C 10.9 °C 1020.2 hPa SW 31.5 km/h 31.5 km/h 58 % 0.0 mm 304.0 W/m2 CLR
11:52 18.9 °C 10.4 °C 1019.9 hPa SSW 31.5 km/h 31.5 km/h 58 % 0.0 mm 216.0 W/m2 CLR
11:57 18.9 °C 10.4 °C 1019.9 hPa SW 32.2 km/h 32.2 km/h 58 % 0.0 mm 279.0 W/m2 CLR
12:02 19.4 °C 10.9 °C 1020.2 hPa SW 27.8 km/h 27.8 km/h 58 % 0.0 mm 378.0 W/m2 CLR
12:03 19.4 °C 10.9 °C 1020.2 hPa SW 25.9 km/h 25.9 km/h 58 % 0.0 mm 378.0 W/m2 CLR
12:08 20.0 °C 10.9 °C 1020.2 hPa SW 35.4 km/h 35.4 km/h 56 % 0.0 mm 378.0 W/m2 CLR
12:13 20.6 °C 10.9 °C 1020.2 hPa SSW 40.7 km/h 40.7 km/h 54 % 0.0 mm 243.0 W/m2 CLR
12:18 20.0 °C 10.7 °C 1020.2 hPa WSW 29.0 km/h 29.0 km/h 55 % 0.0 mm 366.0 W/m2 CLR
12:23 20.0 °C 10.4 °C 1020.2 hPa SW 27.4 km/h 28.2 km/h 54 % 0.0 mm 341.0 W/m2 CLR
12:28 20.0 °C 10.4 °C 1020.2 hPa WSW 29.6 km/h 29.6 km/h 54 % 0.0 mm 262.0 W/m2 CLR
12:29 20.0 °C 10.4 °C 1020.2 hPa West 29.6 km/h 29.6 km/h 54 % 0.0 mm 262.0 W/m2 CLR
12:34 20.0 °C 10.4 °C 1020.2 hPa SW 27.8 km/h 27.8 km/h 54 % 0.0 mm 348.0 W/m2 CLR
12:39 21.1 °C 11.4 °C 1020.2 hPa SW 35.4 km/h 35.4 km/h 54 % 0.0 mm 575.0 W/m2 CLR
12:44 21.1 °C 10.9 °C 1020.2 hPa WSW 35.4 km/h 35.4 km/h 52 % 0.0 mm 283.0 W/m2 CLR
12:50 20.6 °C 10.1 °C 1020.2 hPa WSW 40.7 km/h 40.7 km/h 51 % 0.0 mm 243.0 W/m2 CLR
12:55 20.6 °C 10.7 °C 1019.9 hPa SW 33.3 km/h 33.3 km/h 53 % 0.0 mm 302.0 W/m2 CLR
13:00 20.6 °C 10.7 °C 1019.9 hPa WSW 37.0 km/h 37.0 km/h 53 % 0.0 mm 896.0 W/m2 CLR
13:05 21.1 °C 11.2 °C 1019.9 hPa WSW 31.5 km/h 31.5 km/h 53 % 0.0 mm 896.0 W/m2 CLR
13:10 21.1 °C 10.9 °C 1019.9 hPa WSW 35.2 km/h 35.2 km/h 52 % 0.0 mm 229.0 W/m2 CLR
13:15 22.2 °C 11.6 °C 1019.9 hPa SW 31.5 km/h 31.5 km/h 51 % 0.0 mm 983.0 W/m2 CLR
13:20 22.2 °C 11.0 °C 1019.9 hPa WSW 32.2 km/h 32.2 km/h 49 % 0.0 mm 378.0 W/m2 CLR
13:25 21.1 °C 10.6 °C 1019.9 hPa West 25.9 km/h 25.9 km/h 51 % 0.0 mm 867.0 W/m2 CLR
13:30 21.7 °C 10.8 °C 1019.9 hPa SW 29.6 km/h 29.6 km/h 50 % 0.0 mm 540.0 W/m2 CLR
13:35 21.7 °C 10.8 °C 1019.9 hPa SW 27.8 km/h 27.8 km/h 50 % 0.0 mm 891.0 W/m2 CLR
13:40 22.8 °C 11.5 °C 1019.9 hPa West 31.5 km/h 31.5 km/h 49 % 0.0 mm 991.0 W/m2 CLR
13:45 21.7 °C 10.5 °C 1019.9 hPa WSW 35.4 km/h 35.4 km/h 49 % 0.0 mm 366.0 W/m2 CLR
13:50 21.7 °C 10.8 °C 1019.9 hPa SW 31.5 km/h 31.5 km/h 50 % 0.0 mm 563.0 W/m2 CLR
13:55 21.7 °C 10.8 °C 1019.9 hPa SSW 29.6 km/h 29.6 km/h 50 % 0.0 mm 350.0 W/m2 CLR
14:00 21.1 °C 10.3 °C 1019.9 hPa West 32.2 km/h 32.2 km/h 50 % 0.0 mm 420.0 W/m2 CLR
14:05 22.2 °C 11.3 °C 1019.9 hPa West 33.3 km/h 33.3 km/h 50 % 0.0 mm 861.0 W/m2 CLR
14:10 22.8 °C 11.8 °C 1019.9 hPa WSW 27.4 km/h 27.4 km/h 50 % 0.0 mm 967.0 W/m2 CLR
14:15 23.3 °C 11.7 °C 1019.9 hPa WSW 33.3 km/h 33.3 km/h 48 % 0.0 mm 898.0 W/m2 CLR
14:20 23.9 °C 11.9 °C 1019.5 hPa SSW 33.8 km/h 33.8 km/h 47 % 0.0 mm 814.0 W/m2 CLR
14:25 23.3 °C 11.4 °C 1019.5 hPa SW 27.8 km/h 27.8 km/h 47 % 0.0 mm 738.0 W/m2 CLR
14:30 22.8 °C 10.9 °C 1019.5 hPa SSW 35.2 km/h 35.2 km/h 47 % 0.0 mm 497.0 W/m2 CLR
14:35 23.3 °C 11.7 °C 1019.5 hPa SW 22.2 km/h 22.2 km/h 48 % 0.0 mm 773.0 W/m2 CLR
14:40 23.3 °C 11.1 °C 1019.5 hPa WSW 31.5 km/h 31.5 km/h 46 % 0.0 mm 735.0 W/m2 CLR
14:41 23.3 °C 11.1 °C 1019.5 hPa West 37.0 km/h 37.0 km/h 46 % 0.0 mm 735.0 W/m2 CLR
14:46 23.9 °C 11.6 °C 1019.5 hPa West 37.0 km/h 37.0 km/h 46 % 0.0 mm 810.0 W/m2 CLR
14:51 23.3 °C 11.1 °C 1019.5 hPa West 33.3 km/h 33.3 km/h 46 % 0.0 mm 800.0 W/m2 CLR
14:56 23.9 °C 11.2 °C 1019.9 hPa WSW 31.5 km/h 31.5 km/h 45 % 0.0 mm 800.0 W/m2 CLR
15:01 23.9 °C 11.6 °C 1019.9 hPa WSW 33.3 km/h 33.3 km/h 46 % 0.0 mm 786.0 W/m2 CLR
15:06 23.9 °C 11.2 °C 1019.9 hPa WSW 31.5 km/h 31.5 km/h 45 % 0.0 mm 770.0 W/m2 CLR
15:11 23.9 °C 10.9 °C 1019.9 hPa WSW 31.5 km/h 31.5 km/h 44 % 0.0 mm 761.0 W/m2 CLR
15:16 23.9 °C 11.2 °C 1019.9 hPa WSW 33.3 km/h 33.3 km/h 45 % 0.0 mm 752.0 W/m2 CLR
15:21 23.9 °C 11.2 °C 1019.5 hPa WSW 31.5 km/h 31.5 km/h 45 % 0.0 mm 747.0 W/m2 CLR
15:26 23.9 °C 10.9 °C 1019.9 hPa SW 42.6 km/h 42.6 km/h 44 % 0.0 mm 744.0 W/m2 CLR
15:31 23.9 °C 10.9 °C 1019.5 hPa SW 25.9 km/h 25.9 km/h 44 % 0.0 mm 724.0 W/m2 CLR
15:36 23.9 °C 10.9 °C 1019.5 hPa WSW 37.0 km/h 37.0 km/h 44 % 0.0 mm 719.0 W/m2 CLR
15:41 23.9 °C 10.9 °C 1019.5 hPa WSW 40.7 km/h 40.7 km/h 44 % 0.0 mm 712.0 W/m2 CLR
15:46 24.4 °C 11.4 °C 1019.5 hPa WSW 37.0 km/h 37.0 km/h 44 % 0.0 mm 705.0 W/m2 CLR
15:51 24.4 °C 11.4 °C 1019.5 hPa SW 33.3 km/h 33.3 km/h 44 % 0.0 mm 694.0 W/m2 CLR
15:56 23.9 °C 11.2 °C 1019.5 hPa WSW 20.4 km/h 20.4 km/h 45 % 0.0 mm 682.0 W/m2 CLR
16:01 23.9 °C 10.9 °C 1019.5 hPa WSW 37.0 km/h 37.0 km/h 44 % 0.0 mm 675.0 W/m2 CLR
16:06 23.9 °C 11.2 °C 1019.5 hPa WSW 31.5 km/h 31.5 km/h 45 % 0.0 mm 664.0 W/m2 CLR
16:11 23.3 °C 10.4 °C 1019.5 hPa West 41.8 km/h 41.8 km/h 44 % 0.0 mm 654.0 W/m2 CLR
16:16 23.9 °C 10.6 °C 1019.9 hPa WSW 33.8 km/h 33.8 km/h 43 % 0.0 mm 643.0 W/m2 CLR
16:21 23.9 °C 10.9 °C 1019.9 hPa West 35.2 km/h 35.2 km/h 44 % 0.0 mm 633.0 W/m2 CLR
16:26 23.9 °C 10.2 °C 1019.9 hPa SW 35.2 km/h 35.2 km/h 42 % 0.0 mm 624.0 W/m2 CLR
16:31 23.9 °C 10.2 °C 1019.9 hPa WSW 40.7 km/h 40.7 km/h 42 % 0.0 mm 613.0 W/m2 CLR
16:36 23.9 °C 9.8 °C 1019.9 hPa West 40.7 km/h 40.7 km/h 41 % 0.0 mm 601.0 W/m2 CLR
16:41 24.4 °C 10.3 °C 1019.5 hPa WSW 30.6 km/h 30.6 km/h 41 % 0.0 mm 589.0 W/m2 CLR
16:46 23.9 °C 10.2 °C 1019.5 hPa WSW 31.5 km/h 31.5 km/h 42 % 0.0 mm 575.0 W/m2 CLR
16:51 24.4 °C 10.3 °C 1019.5 hPa West 31.5 km/h 31.5 km/h 41 % 0.0 mm 564.0 W/m2 CLR
16:56 24.4 °C 10.3 °C 1019.5 hPa SW 37.0 km/h 37.0 km/h 41 % 0.0 mm 548.0 W/m2 CLR
17:01 23.9 °C 9.8 °C 1019.5 hPa WSW 31.5 km/h 31.5 km/h 41 % 0.0 mm 536.0 W/m2 CLR
17:11 24.4 °C 10.3 °C 1019.5 hPa SW 33.3 km/h 33.3 km/h 41 % 0.0 mm 508.0 W/m2 CLR
17:16 23.9 °C 9.8 °C 1019.5 hPa West 42.6 km/h 42.6 km/h 41 % 0.0 mm 496.0 W/m2 CLR
17:21 24.4 °C 9.9 °C 1019.5 hPa WSW 37.0 km/h 37.0 km/h 40 % 0.0 mm 480.0 W/m2 CLR
17:26 24.4 °C 10.3 °C 1019.5 hPa SW 35.2 km/h 35.2 km/h 41 % 0.0 mm 468.0 W/m2 CLR
17:31 23.9 °C 9.4 °C 1019.5 hPa West 43.4 km/h 43.4 km/h 40 % 0.0 mm 450.0 W/m2 CLR
17:36 23.9 °C 9.4 °C 1019.5 hPa WSW 31.5 km/h 31.5 km/h 40 % 0.0 mm 439.0 W/m2 CLR
17:41 23.9 °C 9.8 °C 1019.2 hPa WSW 24.1 km/h 24.1 km/h 41 % 0.0 mm 418.0 W/m2 CLR
17:46 23.9 °C 9.1 °C 1019.5 hPa West 40.7 km/h 40.7 km/h 39 % 0.0 mm 406.0 W/m2 CLR
17:52 23.9 °C 8.7 °C 1019.5 hPa West 29.6 km/h 29.6 km/h 38 % 0.0 mm 392.0 W/m2 CLR
17:57 23.9 °C 9.1 °C 1019.5 hPa West 33.3 km/h 33.3 km/h 39 % 0.0 mm 374.0 W/m2 CLR
18:02 23.9 °C 9.4 °C 1019.5 hPa WSW 27.8 km/h 27.8 km/h 40 % 0.0 mm 359.0 W/m2 CLR
18:07 23.9 °C 9.4 °C 1019.5 hPa West 22.5 km/h 22.5 km/h 40 % 0.0 mm 343.0 W/m2 CLR
18:12 23.9 °C 9.4 °C 1019.5 hPa WSW 35.4 km/h 35.4 km/h 40 % 0.0 mm 329.0 W/m2 CLR
18:17 23.9 °C 9.8 °C 1019.5 hPa SW 31.5 km/h 31.5 km/h 41 % 0.0 mm 309.0 W/m2 CLR
18:18 23.9 °C 9.8 °C 1019.5 hPa West 31.5 km/h 31.5 km/h 41 % 0.0 mm 306.0 W/m2 CLR
18:23 23.9 °C 9.8 °C 1019.5 hPa SW 27.8 km/h 27.8 km/h 41 % 0.0 mm 290.0 W/m2 CLR
18:28 23.3 °C 9.3 °C 1019.5 hPa WSW 25.7 km/h 25.7 km/h 41 % 0.0 mm 274.0 W/m2 CLR
18:33 23.3 °C 9.3 °C 1019.5 hPa West 29.6 km/h 29.6 km/h 41 % 0.0 mm 262.0 W/m2 CLR
18:38 23.3 °C 9.3 °C 1019.5 hPa SW 18.5 km/h 18.5 km/h 41 % 0.0 mm 241.0 W/m2 CLR
18:43 22.8 °C 8.8 °C 1019.9 hPa WSW 33.3 km/h 33.3 km/h 41 % 0.0 mm 220.0 W/m2 CLR
18:48 23.3 °C 9.3 °C 1019.9 hPa West 24.1 km/h 24.1 km/h 41 % 0.0 mm 207.0 W/m2 CLR
18:53 22.8 °C 8.8 °C 1019.5 hPa West 35.2 km/h 35.2 km/h 41 % 0.0 mm 193.0 W/m2 CLR
18:58 22.8 °C 8.8 °C 1019.9 hPa West 29.6 km/h 29.6 km/h 41 % 0.0 mm 174.0 W/m2 CLR
19:03 22.8 °C 9.2 °C 1019.9 hPa West 29.6 km/h 29.6 km/h 42 % 0.0 mm 141.0 W/m2 CLR
19:08 22.2 °C 8.7 °C 1019.9 hPa WSW 24.1 km/h 24.1 km/h 42 % 0.0 mm 109.0 W/m2 CLR
19:13 22.2 °C 9.1 °C 1019.9 hPa West 22.2 km/h 22.2 km/h 43 % 0.0 mm 107.0 W/m2 CLR
19:18 22.2 °C 9.1 °C 1019.9 hPa West 25.9 km/h 25.9 km/h 43 % 0.0 mm 97.0 W/m2 CLR
19:23 22.2 °C 9.1 °C 1019.9 hPa West 25.9 km/h 25.9 km/h 43 % 0.0 mm 70.0 W/m2 FEW
19:28 22.2 °C 9.1 °C 1019.9 hPa WSW 31.5 km/h 31.5 km/h 43 % 0.0 mm 49.0 W/m2 SCT
19:33 21.7 °C 8.9 °C 1019.9 hPa WSW 14.8 km/h 14.8 km/h 44 % 0.0 mm 42.0 W/m2 BKN
19:38 21.7 °C 8.6 °C 1020.2 hPa WSW 20.4 km/h 20.4 km/h 43 % 0.0 mm 46.0 W/m2 SCT
19:43 21.7 °C 8.6 °C 1020.2 hPa West 20.4 km/h 20.4 km/h 43 % 0.0 mm 32.0 W/m2 BKN
19:48 21.7 °C 8.6 °C 1020.2 hPa WSW 20.4 km/h 20.4 km/h 43 % 0.0 mm 23.0 W/m2 BKN
19:53 21.1 °C 8.1 °C 1020.2 hPa West 18.5 km/h 18.5 km/h 43 % 0.0 mm 18.0 W/m2 BKN
19:58 21.1 °C 8.1 °C 1020.2 hPa West 22.2 km/h 22.2 km/h 43 % 0.0 mm 14.0 W/m2 BKN
20:03 21.1 °C 8.1 °C 1020.5 hPa WSW 22.5 km/h 22.5 km/h 43 % 0.0 mm 11.0 W/m2 BKN
20:08 21.1 °C 8.4 °C 1020.5 hPa SW 18.5 km/h 18.5 km/h 44 % 0.0 mm 7.0 W/m2 BKN
20:13 20.6 °C 7.9 °C 1020.5 hPa SW 18.5 km/h 18.5 km/h 44 % 0.0 mm 5.0 W/m2 OVC
20:18 20.6 °C 7.9 °C 1020.9 hPa WSW 20.4 km/h 20.4 km/h 44 % 0.0 mm 0.0 W/m2 OVC
20:23 20.6 °C 7.9 °C 1020.9 hPa WSW 18.5 km/h 18.5 km/h 44 % 0.0 mm 0.0 W/m2 OVC
20:28 20.6 °C 8.2 °C 1020.9 hPa WSW 20.4 km/h 20.4 km/h 45 % 0.0 mm 0.0 W/m2 CLR
20:33 20.0 °C 7.7 °C 1020.9 hPa SW 14.8 km/h 14.8 km/h 45 % 0.0 mm 0.0 W/m2 CLR
20:38 19.4 °C 7.2 °C 1021.2 hPa SW 16.7 km/h 16.7 km/h 45 % 0.0 mm 0.0 W/m2 CLR
20:43 19.4 °C 7.2 °C 1021.2 hPa SW 14.8 km/h 14.8 km/h 45 % 0.0 mm 0.0 W/m2 CLR
20:48 18.9 °C 6.7 °C 1021.2 hPa SW 9.7 km/h 9.7 km/h 45 % 0.0 mm 0.0 W/m2 CLR
20:53 18.9 °C 6.7 °C 1021.2 hPa SW 13.0 km/h 13.0 km/h 45 % 0.0 mm 0.0 W/m2 CLR
20:58 18.9 °C 7.0 °C 1021.2 hPa SW 16.7 km/h 16.7 km/h 46 % 0.0 mm 0.0 W/m2 CLR
21:03 18.3 °C 6.5 °C 1021.6 hPa SW 12.9 km/h 12.9 km/h 46 % 0.0 mm 0.0 W/m2 CLR
21:08 18.3 °C 6.5 °C 1021.6 hPa SW 13.0 km/h 13.0 km/h 46 % 0.0 mm 0.0 W/m2 CLR
21:13 18.3 °C 6.5 °C 1021.6 hPa SW 9.3 km/h 9.3 km/h 46 % 0.0 mm 0.0 W/m2 CLR
21:18 17.8 °C 6.3 °C 1021.6 hPa WSW 12.9 km/h 12.9 km/h 47 % 0.0 mm 0.0 W/m2 CLR
21:23 17.8 °C 6.3 °C 1021.9 hPa WSW 9.7 km/h 9.7 km/h 47 % 0.0 mm 0.0 W/m2 CLR
21:28 17.2 °C 5.8 °C 1021.9 hPa SW 13.0 km/h 13.0 km/h 47 % 0.0 mm 0.0 W/m2 CLR
21:33 17.2 °C 5.8 °C 1021.9 hPa Calm     47 % 0.0 mm 0.0 W/m2 CLR
21:38 16.7 °C 5.3 °C 1021.9 hPa Calm     47 % 0.0 mm 0.0 W/m2 CLR
21:43 16.1 °C 4.8 °C 1021.9 hPa Calm     47 % 0.0 mm 0.0 W/m2 CLR
21:48 15.6 °C 4.3 °C 1022.2 hPa Calm     47 % 0.0 mm 0.0 W/m2 CLR
21:53 15.0 °C 3.8 °C 1022.2 hPa Calm     47 % 0.0 mm 0.0 W/m2 CLR
21:58 15.0 °C 4.1 °C 1022.2 hPa Calm     48 % 0.0 mm 0.0 W/m2 CLR
22:03 14.4 °C 3.8 °C 1022.2 hPa Calm     49 % 0.0 mm 0.0 W/m2 CLR
22:08 14.4 °C 3.8 °C 1022.2 hPa Calm     49 % 0.0 mm 0.0 W/m2 CLR
22:13 13.9 °C 3.6 °C 1022.6 hPa Calm     50 % 0.0 mm 0.0 W/m2 CLR
22:18 13.9 °C 3.6 °C 1022.6 hPa Calm     50 % 0.0 mm 0.0 W/m2 CLR
22:23 13.3 °C 3.4 °C 1022.6 hPa SSW 3.7 km/h 3.7 km/h 51 % 0.0 mm 0.0 W/m2 CLR
22:28 13.3 °C 3.4 °C 1022.6 hPa SSW 5.6 km/h 5.6 km/h 51 % 0.0 mm 0.0 W/m2 CLR
22:33 13.3 °C 3.4 °C 1022.6 hPa SSW 8.0 km/h 8.0 km/h 51 % 0.0 mm 0.0 W/m2 CLR
22:34 13.3 °C 3.4 °C 1022.9 hPa South 8.0 km/h 8.0 km/h 51 % 0.0 mm 0.0 W/m2 CLR
22:39 12.8 °C 2.9 °C 1022.6 hPa South 11.1 km/h 11.1 km/h 51 % 0.0 mm 0.0 W/m2 CLR
22:44 13.9 °C 3.9 °C 1022.9 hPa South 7.4 km/h 7.6 km/h 51 % 0.0 mm 0.0 W/m2 CLR
22:49 14.4 °C 4.7 °C 1022.9 hPa South 9.3 km/h 9.3 km/h 52 % 0.0 mm 0.0 W/m2 CLR
22:54 14.4 °C 4.7 °C 1022.9 hPa South 5.6 km/h 5.6 km/h 52 % 0.0 mm 0.0 W/m2 CLR
22:59 13.9 °C 4.2 °C 1022.9 hPa Calm     52 % 0.0 mm 0.0 W/m2 CLR
23:04 13.9 °C 4.4 °C 1022.9 hPa Calm     53 % 0.0 mm 0.0 W/m2 CLR
23:09 13.9 °C 4.4 °C 1022.9 hPa SSE 3.7 km/h 3.7 km/h 53 % 0.0 mm 0.0 W/m2 CLR
23:14 13.3 °C 4.5 °C 1022.9 hPa Calm     55 % 0.0 mm 0.0 W/m2 CLR
23:19 13.3 °C 4.7 °C 1023.2 hPa Calm     56 % 0.0 mm 0.0 W/m2 CLR
23:24 12.8 °C 4.4 °C 1023.2 hPa Calm     57 % 0.0 mm 0.0 W/m2 CLR
23:29 12.8 °C 4.7 °C 1023.2 hPa Calm     58 % 0.0 mm 0.0 W/m2 CLR
23:34 12.8 °C 4.9 °C 1023.2 hPa South 1.9 km/h 1.9 km/h 59 % 0.0 mm 0.0 W/m2 CLR
23:39 12.8 °C 5.2 °C 1023.2 hPa Calm     60 % 0.0 mm 0.0 W/m2 CLR
23:44 12.2 °C 4.7 °C 1023.2 hPa Calm     60 % 0.0 mm 0.0 W/m2 CLR
23:49 12.2 °C 4.9 °C 1023.2 hPa Calm     61 % 0.0 mm 0.0 W/m2 CLR
23:54 12.2 °C 4.9 °C 1023.2 hPa Calm     61 % 0.0 mm 0.0 W/m2 CLR
23:59 12.2 °C 4.9 °C 1023.2 hPa Calm     61 % 0.0 mm 0.0 W/m2 CLR
Lo Temps de Massalio
Compliments of Weather Underground - 1.25 mb